Time;durP1;ratioP1;P1;durP2;ratioP2;P2;SDS_P1;SDS_P2;PMS_P1;PMS_P2;Temp;Humidity;BMP_temperature;BMP_pressure;BME280_temperature;BME280_humidity;BME280_pressure;Samples;Min_cycle;Max_cycle;Signal;HPM_P1;HPM_P2
2023/05/26 00:00:34;;;;;;;168.07;62.05;;;;;;;17.64;53.32;102617.44;5030363;28;20026;-78
2023/05/26 00:03:02;;;;;;;171.43;61.38;;;;;;;17.64;53.55;102614.78;5042875;28;20036;-79
2023/05/26 00:05:27;;;;;;;163.18;60.13;;;;;;;17.63;53.13;102623.59;5014992;28;20030;-78
2023/05/26 00:07:53;;;;;;;162.85;60.95;;;;;;;17.63;53.57;102613.03;5031922;28;20621;-78
2023/05/26 00:10:18;;;;;;;169.45;61.78;;;;;;;17.62;53.46;102616.56;5028617;28;20025;-77
2023/05/26 00:12:43;;;;;;;179.50;62.25;;;;;;;17.61;53.65;102621.88;5048874;28;20025;-78
2023/05/26 00:15:09;;;;;;;180.13;63.92;;;;;;;17.61;53.44;102614.81;5028945;28;20481;-78
2023/05/26 00:17:36;;;;;;;198.02;66.30;;;;;;;17.58;53.52;102618.38;5042123;28;20474;-78
2023/05/26 00:20:01;;;;;;;175.63;63.10;;;;;;;17.60;53.72;102622.78;5027990;28;20379;-77
2023/05/26 00:22:27;;;;;;;179.88;62.90;;;;;;;17.60;53.84;102617.47;5043933;28;20033;-78
2023/05/26 00:24:52;;;;;;;174.35;61.92;;;;;;;17.58;53.91;102614.88;5042473;28;20036;-78
2023/05/26 00:27:17;;;;;;;167.43;60.78;;;;;;;17.57;54.32;102621.94;5015478;28;20025;-78
2023/05/26 00:29:43;;;;;;;183.02;63.55;;;;;;;17.57;53.54;102621.03;5025198;28;20043;-78
2023/05/26 00:32:08;;;;;;;186.20;65.55;;;;;;;17.57;53.66;102629.84;5009310;28;20017;-77
2023/05/26 00:34:34;;;;;;;178.00;62.35;;;;;;;17.57;53.79;102621.03;5024577;28;20062;-78
2023/05/26 00:37:00;;;;;;;168.55;60.63;;;;;;;17.56;53.92;102620.19;5012071;28;20048;-81
2023/05/26 00:39:26;;;;;;;182.45;63.75;;;;;;;17.56;54.04;102621.94;5043283;28;20490;-78
2023/05/26 00:41:52;;;;;;;189.80;63.83;;;;;;;17.55;54.08;102623.72;5037752;28;20045;-78
2023/05/26 00:44:17;;;;;;;186.15;65.13;;;;;;;17.54;54.34;102626.38;5047657;28;20028;-79
2023/05/26 00:46:42;;;;;;;196.63;64.60;;;;;;;17.54;54.36;102623.72;5022157;28;20045;-79
2023/05/26 00:49:08;;;;;;;165.85;60.55;;;;;;;17.53;54.09;102627.25;5024529;28;20479;-78
2023/05/26 00:51:33;;;;;;;168.10;61.13;;;;;;;17.52;54.46;102621.13;5022328;28;20025;-79
2023/05/26 00:53:59;;;;;;;174.13;62.15;;;;;;;17.51;53.98;102627.28;5030391;28;20029;-79
2023/05/26 00:56:27;;;;;;;173.32;61.53;;;;;;;17.51;54.57;102629.06;5044842;28;20033;-78
2023/05/26 00:58:53;;;;;;;179.32;62.05;;;;;;;17.50;54.75;102633.47;5047173;28;20113;-79
2023/05/26 01:01:18;;;;;;;179.15;64.38;;;;;;;17.50;55.25;102632.59;5034091;28;20181;-78
2023/05/26 01:03:44;;;;;;;170.05;61.83;;;;;;;17.50;55.02;102637.88;5045983;28;20029;-76
2023/05/26 01:06:10;;;;;;;166.50;61.00;;;;;;;17.49;55.28;102633.50;5016355;28;20499;-77
2023/05/26 01:08:35;;;;;;;167.52;61.55;;;;;;;17.48;54.88;102632.63;5020770;28;20060;-77
2023/05/26 01:11:33;;;;;;;176.77;62.25;;;;;;;17.49;55.51;102638.78;5023151;28;20026;-77
2023/05/26 01:14:19;;;;;;;164.93;60.80;;;;;;;17.48;55.21;102642.31;5025008;28;20037;-76
2023/05/26 01:16:52;;;;;;;166.77;62.30;;;;;;;17.47;55.50;102646.72;5019038;28;20259;-76
2023/05/26 01:19:36;;;;;;;167.35;61.17;;;;;;;17.47;55.36;102648.50;5033214;28;20032;-76
2023/05/26 01:22:48;;;;;;;168.77;61.72;;;;;;;17.47;56.41;102648.50;5030227;28;20035;-76
2023/05/26 01:25:51;;;;;;;177.13;63.65;;;;;;;17.46;56.40;102658.19;5031366;28;20357;-77
2023/05/26 01:28:26;;;;;;;169.70;60.33;;;;;;;17.46;56.89;102650.25;5043490;28;20112;-77
2023/05/26 01:30:53;;;;;;;171.68;62.40;;;;;;;17.44;56.68;102659.09;5033257;28;20032;-77
2023/05/26 01:33:18;;;;;;;171.90;62.08;;;;;;;17.45;56.39;102652.91;5033521;28;20108;-77
2023/05/26 01:35:44;;;;;;;170.38;61.05;;;;;;;17.45;56.90;102655.56;5027355;28;20519;-77
2023/05/26 01:38:10;;;;;;;174.52;61.85;;;;;;;17.45;56.29;102655.56;5017097;28;20112;-77
2023/05/26 01:40:38;;;;;;;165.85;60.45;;;;;;;17.44;56.44;102659.09;5016835;28;20136;-77
2023/05/26 01:43:23;;;;;;;176.45;62.97;;;;;;;17.44;56.68;102656.44;5031116;28;20025;-77
2023/05/26 01:45:56;;;;;;;175.32;63.10;;;;;;;17.43;56.28;102657.38;5048098;28;20064;-76
2023/05/26 01:48:22;;;;;;;171.85;62.45;;;;;;;17.42;56.20;102655.63;5020147;28;20030;-77
2023/05/26 01:50:52;;;;;;;170.15;60.63;;;;;;;17.43;56.58;102673.22;5023917;28;20025;-77
2023/05/26 01:53:20;;;;;;;174.20;62.35;;;;;;;17.42;56.86;102661.75;5031669;28;20025;-76
2023/05/26 01:55:46;;;;;;;182.13;62.88;;;;;;;17.42;56.93;102666.19;5006071;28;20045;-76
2023/05/26 01:58:11;;;;;;;174.77;62.25;;;;;;;17.42;56.50;102668.81;5045544;28;22145;-75
2023/05/26 02:00:45;;;;;;;170.48;61.90;;;;;;;17.42;56.38;102671.47;5064193;28;20021;-77
2023/05/26 02:03:11;;;;;;;180.77;62.83;;;;;;;17.39;57.20;102673.25;5025498;28;20049;-77
2023/05/26 02:05:36;;;;;;;172.13;60.88;;;;;;;17.37;56.80;102664.47;5032197;28;20108;-77
2023/05/26 02:08:01;;;;;;;177.60;62.70;;;;;;;17.37;57.41;102663.63;5020818;28;20038;-77
2023/05/26 02:10:27;;;;;;;181.18;64.00;;;;;;;17.36;56.94;102672.44;5032507;28;20044;-76
2023/05/26 02:12:52;;;;;;;168.27;61.40;;;;;;;17.33;57.11;102662.78;5026338;28;20018;-77
2023/05/26 02:15:17;;;;;;;168.05;60.30;;;;;;;17.35;56.69;102671.53;5033842;28;20021;-75
2023/05/26 02:17:43;;;;;;;177.25;61.95;;;;;;;17.35;57.49;102671.53;5046577;28;20025;-76
2023/05/26 02:20:09;;;;;;;166.65;60.67;;;;;;;17.33;56.98;102670.69;5013702;28;20022;-76
2023/05/26 02:22:34;;;;;;;166.35;59.90;;;;;;;17.33;57.23;102673.34;5041813;28;20449;-76
2023/05/26 02:25:00;;;;;;;160.15;59.10;;;;;;;17.33;57.37;102678.63;5016207;28;20033;-76
2023/05/26 02:27:25;;;;;;;172.70;61.17;;;;;;;17.33;57.99;102675.97;5039701;28;20112;-77
2023/05/26 02:29:50;;;;;;;168.60;59.80;;;;;;;17.33;57.85;102672.44;5031258;28;20025;-77
2023/05/26 02:32:16;;;;;;;169.57;60.40;;;;;;;17.33;57.94;102683.00;5025842;28;20017;-77
2023/05/26 02:34:41;;;;;;;165.85;59.58;;;;;;;17.32;57.86;102687.44;5032758;28;20100;-77
2023/05/26 02:37:06;;;;;;;167.27;61.05;;;;;;;17.32;57.77;102692.72;5025847;28;20463;-77
2023/05/26 02:39:32;;;;;;;162.15;58.90;;;;;;;17.31;57.88;102693.59;5032025;28;20404;-76
2023/05/26 02:41:57;;;;;;;175.30;62.22;;;;;;;17.31;58.25;102696.25;5033023;28;20050;-78
2023/05/26 02:44:22;;;;;;;172.43;62.88;;;;;;;17.31;58.30;102701.53;5016976;28;20092;-77
2023/05/26 02:46:48;;;;;;;167.98;60.40;;;;;;;17.31;57.90;102690.97;5025309;28;20122;-77
2023/05/26 02:49:13;;;;;;;161.10;58.90;;;;;;;17.29;58.68;102698.03;5030233;28;20049;-77
2023/05/26 02:51:38;;;;;;;170.73;61.42;;;;;;;17.29;58.32;102695.41;5019277;28;20029;-77
2023/05/26 02:54:04;;;;;;;169.90;62.70;;;;;;;17.29;58.47;102705.06;5029552;28;20036;-77
2023/05/26 02:56:29;;;;;;;164.32;60.85;;;;;;;17.28;58.32;102700.72;5031514;28;20025;-77
2023/05/26 02:58:55;;;;;;;173.55;62.05;;;;;;;17.28;58.62;102709.50;5020211;28;20113;-77
2023/05/26 03:01:21;;;;;;;171.98;61.97;;;;;;;17.28;58.60;102706.84;5048142;28;20368;-77
2023/05/26 03:03:47;;;;;;;171.55;61.08;;;;;;;17.28;58.32;102709.50;5046045;22;20091;-70
2023/05/26 03:06:12;;;;;;;167.05;61.65;;;;;;;17.27;58.29;102710.38;5014598;28;20402;-72
2023/05/26 03:08:38;;;;;;;173.52;61.20;;;;;;;17.27;58.78;102713.00;5019412;28;20698;-72
2023/05/26 03:11:03;;;;;;;170.40;61.10;;;;;;;17.26;58.87;102711.28;5041396;28;20020;-72
2023/05/26 03:13:29;;;;;;;164.80;61.03;;;;;;;17.26;58.78;102703.38;5045187;28;20168;-72
2023/05/26 03:15:54;;;;;;;169.48;61.10;;;;;;;17.27;59.00;102704.22;5032300;28;20025;-73
2023/05/26 03:18:19;;;;;;;165.98;60.38;;;;;;;17.26;58.80;102708.66;4999232;28;20021;-72
2023/05/26 03:20:48;;;;;;;170.65;61.58;;;;;;;17.27;58.40;102710.38;5005318;28;20016;-73
2023/05/26 03:23:16;;;;;;;175.73;62.30;;;;;;;17.27;59.05;102709.50;5051084;28;20486;-72
2023/05/26 03:25:41;;;;;;;172.95;60.05;;;;;;;17.27;58.22;102702.44;5017420;28;20111;-72
2023/05/26 03:28:07;;;;;;;170.27;61.17;;;;;;;17.28;57.75;102706.00;5010595;28;20517;-71
2023/05/26 03:30:32;;;;;;;169.13;60.65;;;;;;;17.29;58.44;102710.34;5040670;28;20017;-70
2023/05/26 03:32:57;;;;;;;169.80;62.28;;;;;;;17.28;58.35;102709.50;5043371;28;20057;-72
2023/05/26 03:35:23;;;;;;;183.18;67.20;;;;;;;17.29;58.63;102713.88;5026135;28;20018;-70
2023/05/26 03:37:49;;;;;;;169.77;67.82;;;;;;;17.31;57.96;102722.66;5012350;28;20029;-71
2023/05/26 03:40:14;;;;;;;166.02;68.38;;;;;;;17.32;57.75;102718.25;4995528;28;20076;-71
2023/05/26 03:42:40;;;;;;;169.10;64.10;;;;;;;17.31;57.94;102716.50;5031196;28;20022;-72
2023/05/26 03:45:06;;;;;;;169.30;63.35;;;;;;;17.32;57.73;102721.75;5031450;28;20050;-72
2023/05/26 03:47:31;;;;;;;177.88;67.57;;;;;;;17.34;58.40;102712.06;5044967;28;20508;-72
2023/05/26 03:49:56;;;;;;;170.70;66.15;;;;;;;17.34;58.56;102717.34;5007172;28;20056;-71
2023/05/26 03:52:21;;;;;;;166.10;64.43;;;;;;;17.35;57.58;102711.16;5032525;28;20021;-72
2023/05/26 03:54:47;;;;;;;164.73;63.63;;;;;;;17.36;57.97;102704.13;5034164;28;20029;-72
2023/05/26 03:57:12;;;;;;;173.77;63.28;;;;;;;17.37;57.83;102712.03;5021637;28;20013;-72
2023/05/26 03:59:38;;;;;;;168.57;64.88;;;;;;;17.38;57.40;102713.78;5020421;28;20029;-72
2023/05/26 04:02:03;;;;;;;169.07;68.22;;;;;;;17.40;57.36;102711.97;5041662;28;20498;-71
2023/05/26 04:04:28;;;;;;;169.80;63.92;;;;;;;17.42;57.20;102714.59;5024419;28;20396;-73
2023/05/26 04:06:54;;;;;;;173.50;71.95;;;;;;;17.43;58.15;102716.34;5051465;28;20036;-73
2023/05/26 04:09:19;;;;;;;180.82;68.95;;;;;;;17.45;57.86;102711.03;5036699;28;20017;-71
2023/05/26 04:11:46;;;;;;;183.55;72.93;;;;;;;17.46;57.40;102715.44;5024232;28;20183;-73
2023/05/26 04:14:11;;;;;;;180.63;62.35;;;;;;;17.49;57.23;102718.03;5001016;28;20039;-70
2023/05/26 04:16:36;;;;;;;164.00;59.75;;;;;;;17.50;57.26;102722.44;5035772;28;20025;-70
2023/05/26 04:19:02;;;;;;;170.25;61.80;;;;;;;17.52;57.54;102724.16;5014049;28;20120;-70
2023/05/26 04:21:27;;;;;;;168.85;60.97;;;;;;;17.55;57.51;102720.59;5032425;28;20104;-72
2023/05/26 04:23:53;;;;;;;175.98;61.70;;;;;;;17.56;57.64;102727.63;5025084;28;20091;-71
2023/05/26 04:26:18;;;;;;;167.02;60.28;;;;;;;17.58;56.74;102732.00;4998087;28;20026;-71
2023/05/26 04:28:44;;;;;;;165.30;60.42;;;;;;;17.60;57.20;102724.06;5000654;28;20064;-71
2023/05/26 04:31:10;;;;;;;173.60;61.97;;;;;;;17.63;56.73;102733.69;5029899;28;20044;-70
2023/05/26 04:33:39;;;;;;;177.85;62.75;;;;;;;17.64;57.07;102735.44;5021685;28;20037;-72
2023/05/26 04:36:08;;;;;;;169.40;60.88;;;;;;;17.67;56.98;102733.66;4996238;28;20017;-72
2023/05/26 04:38:34;;;;;;;175.68;62.75;;;;;;;17.68;57.11;102730.13;5009817;28;20449;-70
2023/05/26 04:41:00;;;;;;;169.80;60.38;;;;;;;17.72;57.93;102729.19;5036244;28;20036;-70
2023/05/26 04:43:25;;;;;;;170.65;61.38;;;;;;;17.76;57.30;102732.63;5014932;28;20036;-69
2023/05/26 04:45:51;;;;;;;173.27;62.20;;;;;;;17.78;57.69;102732.59;5029306;28;20025;-70
2023/05/26 04:48:17;;;;;;;176.75;63.35;;;;;;;17.79;57.54;102737.00;5007558;28;20021;-69
2023/05/26 04:50:42;;;;;;;164.68;62.17;;;;;;;17.82;57.55;102742.25;5010731;28;20022;-71
2023/05/26 04:53:08;;;;;;;176.65;62.97;;;;;;;17.83;57.71;102733.44;5031762;28;20029;-68
2023/05/26 04:55:36;;;;;;;174.90;62.13;;;;;;;17.86;57.54;102741.31;5034487;28;20116;-70
2023/05/26 04:58:03;;;;;;;165.30;60.50;;;;;;;17.87;56.90;102737.78;5030470;28;20037;-71
2023/05/26 05:00:31;;;;;;;175.02;62.55;;;;;;;17.90;57.19;102740.38;5015976;28;20022;-70
2023/05/26 05:02:57;;;;;;;171.65;61.15;;;;;;;17.92;57.15;102749.19;5043898;28;20037;-70
2023/05/26 05:05:22;;;;;;;165.55;60.60;;;;;;;17.95;56.79;102743.00;5020166;28;20114;-70
2023/05/26 05:07:50;;;;;;;172.38;61.67;;;;;;;17.96;56.48;102750.91;5015218;28;20021;-70
2023/05/26 05:10:16;;;;;;;164.50;60.65;;;;;;;17.99;56.39;102748.19;5049664;28;20541;-70
2023/05/26 05:12:41;;;;;;;173.68;61.63;;;;;;;18.01;56.69;102751.72;5015262;28;20132;-69
2023/05/26 05:15:07;;;;;;;168.98;60.08;;;;;;;18.03;56.90;102749.91;5044677;28;20024;-70
2023/05/26 05:17:32;;;;;;;166.23;60.83;;;;;;;18.07;56.88;102754.25;5021804;28;20026;-70
2023/05/26 05:19:58;;;;;;;165.65;60.47;;;;;;;18.10;56.40;102760.41;5044980;28;20025;-71
2023/05/26 05:22:23;;;;;;;173.85;62.28;;;;;;;18.14;56.18;102759.44;5026422;28;20033;-70
2023/05/26 05:24:48;;;;;;;163.60;60.38;;;;;;;18.16;55.76;102758.53;5042186;28;20021;-70
2023/05/26 05:27:14;;;;;;;178.98;63.70;;;;;;;18.19;55.91;102761.13;5052959;28;20029;-71
2023/05/26 05:29:39;;;;;;;169.80;61.38;;;;;;;18.22;55.83;102760.22;5004920;28;20491;-70
2023/05/26 05:32:04;;;;;;;169.68;61.15;;;;;;;18.25;55.31;102760.16;5021033;28;20029;-71
2023/05/26 05:34:30;;;;;;;177.52;62.60;;;;;;;18.28;54.99;102760.09;4999095;28;20061;-69
2023/05/26 05:36:55;;;;;;;167.38;60.50;;;;;;;18.32;55.04;102763.56;5032727;28;20108;-70
2023/05/26 05:39:20;;;;;;;162.73;60.40;;;;;;;18.35;55.95;102763.53;5036534;28;20049;-71
2023/05/26 05:41:46;;;;;;;170.75;61.20;;;;;;;18.37;55.91;102762.59;5024533;28;20478;-70
2023/05/26 05:44:11;;;;;;;180.32;62.95;;;;;;;18.41;55.36;102766.09;5018714;28;20483;-69
2023/05/26 05:46:36;;;;;;;172.85;62.78;;;;;;;18.44;55.21;102768.66;5033736;28;20025;-71
2023/05/26 05:49:02;;;;;;;159.82;60.53;;;;;;;18.48;56.00;102775.66;5028911;28;20033;-70
2023/05/26 05:51:27;;;;;;;166.15;59.75;;;;;;;18.51;56.17;102766.78;5019979;28;20521;-70
2023/05/26 05:53:53;;;;;;;173.82;62.90;;;;;;;18.53;55.28;102775.59;5021609;28;20028;-71
2023/05/26 05:56:18;;;;;;;158.32;59.03;;;;;;;18.57;54.70;102782.59;5030973;28;20100;-71
2023/05/26 05:58:44;;;;;;;171.40;61.30;;;;;;;18.59;54.99;102780.78;5016446;28;20021;-71
2023/05/26 06:01:09;;;;;;;167.95;61.75;;;;;;;18.63;54.96;102782.47;5013636;28;20051;-71
2023/05/26 06:03:34;;;;;;;163.48;60.88;;;;;;;18.66;54.34;102782.41;5015931;28;20120;-71
2023/05/26 06:06:00;;;;;;;178.90;62.55;;;;;;;18.69;53.83;102787.66;5033812;28;20112;-71
2023/05/26 06:08:25;;;;;;;165.63;60.28;;;;;;;18.77;53.12;102791.94;5036857;28;20022;-71
2023/05/26 06:10:50;;;;;;;162.95;60.85;;;;;;;18.83;52.92;102786.53;5043549;28;20084;-71
2023/05/26 06:13:16;;;;;;;164.75;60.17;;;;;;;19.01;52.25;102788.88;5053733;28;20052;-71
2023/05/26 06:15:41;;;;;;;166.25;60.15;;;;;;;19.37;50.92;102785.56;5041299;28;20044;-72
2023/05/26 06:18:06;;;;;;;163.50;60.30;;;;;;;19.74;50.12;102782.13;5027766;28;20017;-71
2023/05/26 06:20:32;;;;;;;175.07;60.80;;;;;;;20.06;49.27;102788.53;5042984;28;20025;-71
2023/05/26 06:22:57;;;;;;;166.55;60.47;;;;;;;20.27;48.28;102789.81;5015401;28;20071;-71
2023/05/26 06:25:22;;;;;;;172.13;61.20;;;;;;;20.46;47.46;102792.03;5029213;28;20079;-71
2023/05/26 06:27:48;;;;;;;167.18;60.55;;;;;;;20.59;47.72;102793.47;5023958;28;20047;-71
2023/05/26 06:30:13;;;;;;;166.40;59.83;;;;;;;20.70;47.35;102794.09;5020890;28;20074;-71
2023/05/26 06:32:39;;;;;;;164.93;60.65;;;;;;;20.79;47.81;102792.97;5024866;28;20169;-71
2023/05/26 06:35:05;;;;;;;168.15;60.55;;;;;;;20.85;47.52;102786.66;5023100;28;20117;-71
2023/05/26 06:37:31;;;;;;;165.85;60.85;;;;;;;20.92;47.20;102793.53;5044639;28;20040;-71
2023/05/26 06:39:56;;;;;;;178.30;62.58;;;;;;;20.98;47.20;102785.38;5024561;28;20033;-72
2023/05/26 06:42:22;;;;;;;171.13;61.80;;;;;;;21.02;46.96;102795.00;5046264;28;20385;-71
2023/05/26 06:44:47;;;;;;;174.23;62.60;;;;;;;21.05;46.36;102789.63;5032090;28;20059;-71
2023/05/26 06:47:12;;;;;;;176.43;63.03;;;;;;;21.12;46.62;102795.66;5044829;28;20035;-71
2023/05/26 06:49:38;;;;;;;183.00;63.85;;;;;;;21.16;46.54;102797.31;5047255;28;20444;-71
2023/05/26 06:52:03;;;;;;;197.60;66.53;;;;;;;21.20;46.51;102795.41;5020882;28;20434;-71
2023/05/26 06:54:29;;;;;;;166.63;61.17;;;;;;;21.21;46.09;102795.38;5018165;28;20025;-72
2023/05/26 06:56:54;;;;;;;166.52;62.00;;;;;;;21.23;46.24;102803.34;5032505;28;20026;-72
2023/05/26 06:59:19;;;;;;;179.25;63.45;;;;;;;21.24;45.78;102802.41;5033606;28;20034;-72
2023/05/26 07:01:45;;;;;;;172.82;63.17;;;;;;;21.29;46.04;102803.16;5038283;28;20029;-72
2023/05/26 07:04:10;;;;;;;195.63;66.50;;;;;;;21.30;45.94;102806.66;5048997;28;20030;-72
2023/05/26 07:06:36;;;;;;;162.50;60.90;;;;;;;21.32;45.67;102799.53;5043710;28;20053;-72
2023/05/26 07:09:01;;;;;;;168.15;63.10;;;;;;;21.33;45.41;102804.81;5033354;28;20056;-71
2023/05/26 07:11:26;;;;;;;172.27;63.92;;;;;;;21.35;45.54;102810.06;5039923;28;20025;-72
2023/05/26 07:13:52;;;;;;;174.48;63.80;;;;;;;21.36;45.48;102815.34;5054144;28;20523;-72
2023/05/26 07:16:17;;;;;;;171.23;63.38;;;;;;;21.37;44.98;102810.91;5034879;28;20021;-72
2023/05/26 07:18:42;;;;;;;177.68;65.63;;;;;;;21.34;44.95;102806.56;5050598;28;20087;-72
2023/05/26 07:21:08;;;;;;;171.55;64.60;;;;;;;21.36;45.57;102815.34;5039822;28;20028;-72
2023/05/26 07:23:33;;;;;;;174.00;63.22;;;;;;;21.41;45.52;102810.75;5033855;28;20098;-72
2023/05/26 07:25:58;;;;;;;169.93;63.28;;;;;;;21.42;45.64;102809.84;5024808;28;20061;-72
2023/05/26 07:28:24;;;;;;;166.48;62.08;;;;;;;21.43;46.13;102808.94;5012855;28;20033;-72
2023/05/26 07:30:49;;;;;;;179.07;64.05;;;;;;;21.48;45.99;102808.81;5008766;28;20033;-72
2023/05/26 07:33:14;;;;;;;175.93;63.45;;;;;;;21.48;46.07;102802.63;5013411;28;20045;-72
2023/05/26 07:35:40;;;;;;;183.23;65.85;;;;;;;21.52;45.89;102806.94;5029460;28;20582;-72
2023/05/26 07:38:07;;;;;;;178.55;65.07;;;;;;;21.55;45.85;102809.53;5012798;28;20088;-73
2023/05/26 07:40:34;;;;;;;171.65;62.72;;;;;;;21.53;46.18;102808.69;5010236;28;20062;-73
2023/05/26 07:43:00;;;;;;;168.23;62.22;;;;;;;21.47;46.50;102799.06;5030544;28;20033;-72
2023/05/26 07:45:26;;;;;;;169.13;62.55;;;;;;;21.37;46.43;102801.13;5023959;28;20116;-73
2023/05/26 07:47:51;;;;;;;186.45;65.47;;;;;;;21.26;46.69;102804.09;5011975;28;20119;-73
2023/05/26 07:50:16;;;;;;;184.63;65.47;;;;;;;21.18;46.98;102805.25;5032445;28;20497;-74
2023/05/26 07:52:42;;;;;;;170.52;64.07;;;;;;;21.21;46.93;102805.16;5020323;28;20500;-73
2023/05/26 07:55:07;;;;;;;170.75;64.13;;;;;;;21.25;47.28;102801.50;5038205;28;20020;-73
2023/05/26 07:57:32;;;;;;;168.10;63.40;;;;;;;21.32;47.02;102807.50;5048276;28;20532;-73
2023/05/26 07:59:58;;;;;;;173.13;64.45;;;;;;;21.39;46.56;102806.41;5017817;28;20021;-73
2023/05/26 08:02:23;;;;;;;166.85;63.00;;;;;;;21.45;46.42;102812.41;5031696;28;20140;-74
2023/05/26 08:04:48;;;;;;;171.32;63.15;;;;;;;21.51;46.96;102806.06;5035911;28;20079;-73
2023/05/26 08:07:14;;;;;;;183.05;66.45;;;;;;;21.55;46.11;102798.91;5006639;28;20022;-73
2023/05/26 08:09:39;;;;;;;174.55;65.88;;;;;;;21.59;45.74;102798.75;5026287;28;20021;-72
2023/05/26 08:12:06;;;;;;;176.43;64.10;;;;;;;21.62;46.28;102808.44;4996987;28;20033;-71
2023/05/26 08:14:32;;;;;;;172.52;64.65;;;;;;;21.65;46.71;102810.13;5007576;28;20028;-71
2023/05/26 08:16:58;;;;;;;174.20;64.68;;;;;;;21.65;46.46;102797.72;5025444;28;20026;-72
2023/05/26 08:19:23;;;;;;;165.48;63.85;;;;;;;21.66;47.19;102802.09;5004521;28;20395;-72
2023/05/26 08:21:48;;;;;;;169.60;64.97;;;;;;;21.67;46.76;102809.19;5022059;28;20075;-72
2023/05/26 08:24:14;;;;;;;183.70;66.47;;;;;;;21.68;46.41;102804.72;5019103;28;20522;-72
2023/05/26 08:26:39;;;;;;;169.07;63.10;;;;;;;21.68;46.32;102805.59;5031227;28;20021;-72
2023/05/26 08:29:06;;;;;;;172.35;63.53;;;;;;;21.68;46.93;102805.59;4999158;28;20116;-71
2023/05/26 08:31:31;;;;;;;161.50;61.75;;;;;;;21.68;46.70;102797.63;5030071;28;20386;-72
2023/05/26 08:33:57;;;;;;;175.60;64.68;;;;;;;21.68;47.62;102796.72;5031477;28;20078;-72
2023/05/26 08:36:22;;;;;;;192.65;67.82;;;;;;;21.69;46.67;102796.72;4997833;28;20486;-72
2023/05/26 08:38:47;;;;;;;190.55;67.47;;;;;;;21.71;47.41;102800.19;5008236;28;20451;-72
2023/05/26 08:41:17;;;;;;;169.85;63.47;;;;;;;21.70;47.19;102798.44;5010980;28;20030;-72
2023/05/26 08:43:50;;;;;;;170.00;64.95;;;;;;;21.70;47.06;102798.44;5012522;28;20021;-73
2023/05/26 08:46:16;;;;;;;177.27;65.35;;;;;;;21.68;47.33;102800.28;5012281;28;20022;-71
2023/05/26 08:48:41;;;;;;;177.45;65.32;;;;;;;21.66;47.15;102796.78;5009955;28;20017;-72
2023/05/26 08:51:10;;;;;;;175.27;65.95;;;;;;;21.65;47.36;102796.84;5009032;28;20021;-72
2023/05/26 08:53:36;;;;;;;167.15;63.47;;;;;;;21.62;47.29;102800.44;5003674;28;20033;-72
2023/05/26 08:56:02;;;;;;;181.80;66.68;;;;;;;21.60;47.47;102802.31;4994765;28;20036;-72
2023/05/26 08:58:30;;;;;;;175.93;64.88;;;;;;;21.59;47.42;102800.56;5020463;28;20032;-72
2023/05/26 09:00:57;;;;;;;184.98;66.38;;;;;;;21.53;47.43;102801.59;5019298;28;20049;-72
2023/05/26 09:03:22;;;;;;;181.75;65.63;;;;;;;21.46;47.65;102805.34;5043081;28;20478;-72
2023/05/26 09:05:48;;;;;;;181.32;66.45;;;;;;;21.43;47.87;102800.97;5030776;28;20127;-73
2023/05/26 09:08:13;;;;;;;184.70;66.07;;;;;;;21.44;48.44;102797.38;5034633;28;20429;-73
2023/05/26 09:10:38;;;;;;;183.25;65.50;;;;;;;21.47;47.77;102796.41;5015737;28;20708;-74
2023/05/26 09:13:09;;;;;;;179.15;65.45;;;;;;;21.62;48.13;102800.44;5031969;28;20013;-72
2023/05/26 09:15:36;;;;;;;177.50;64.28;;;;;;;22.01;42.18;102794.84;5013195;28;20079;-73
2023/05/26 09:18:03;;;;;;;175.15;65.40;;;;;;;21.91;41.52;102788.06;5006304;28;20017;-72
2023/05/26 09:20:29;;;;;;;221.48;72.40;;;;;;;21.91;41.52;102793.38;5020509;28;20017;-72
2023/05/26 09:22:58;;;;;;;235.88;75.93;;;;;;;21.87;40.79;102789.97;5018918;28;20602;-73
2023/05/26 09:25:33;;;;;;;224.63;74.18;;;;;;;21.81;40.95;102782.16;5030959;28;20483;-74
2023/05/26 09:28:52;;;;;;;216.98;73.75;;;;;;;21.74;43.68;102784.13;5051382;28;20395;-70
2023/05/26 09:31:18;;;;;;;192.65;70.63;;;;;;;21.40;40.06;102785.09;5046279;28;20402;-69
2023/05/26 09:33:45;;;;;;;189.65;69.97;;;;;;;21.37;39.18;102794.97;5039978;28;20486;-70
2023/05/26 09:36:11;;;;;;;201.68;70.03;;;;;;;21.24;40.08;102799.72;5030369;28;20498;-70
2023/05/26 09:38:36;;;;;;;210.80;72.47;;;;;;;21.15;41.28;102794.69;5047428;28;20071;-71
2023/05/26 09:41:02;;;;;;;193.02;69.53;;;;;;;21.32;38.39;102797.72;5044051;28;20455;-70
2023/05/26 09:43:27;;;;;;;187.93;66.65;;;;;;;21.37;38.67;102793.16;5037625;28;20037;-70
2023/05/26 09:45:52;;;;;;;202.70;70.07;;;;;;;21.14;39.56;102793.81;5043839;28;20037;-70
2023/05/26 09:48:18;;;;;;;181.07;68.85;;;;;;;20.90;41.70;102787.38;5044188;28;20056;-71
2023/05/26 09:50:43;;;;;;;183.25;67.13;;;;;;;20.85;39.91;102797.28;5034666;28;20041;-70
2023/05/26 09:53:10;;;;;;;182.57;66.60;;;;;;;20.91;39.17;102782.03;5045261;28;20029;-69
2023/05/26 09:55:38;;;;;;;189.95;66.80;;;;;;;20.84;39.01;102790.22;5050513;28;20035;-69
2023/05/26 09:58:09;;;;;;;190.82;68.40;;;;;;;20.81;39.42;102779.66;5046981;28;20036;-70
2023/05/26 10:00:36;;;;;;;182.05;66.20;;;;;;;20.80;39.31;102785.88;5025828;28;20115;-70
2023/05/26 10:03:05;;;;;;;187.77;67.70;;;;;;;20.66;39.75;102786.22;5027583;28;20086;-69
2023/05/26 10:05:38;;;;;;;177.32;66.55;;;;;;;20.66;39.07;102784.44;5047790;28;20025;-69
2023/05/26 10:08:05;;;;;;;184.82;66.70;;;;;;;20.69;39.27;102784.38;5053617;28;20029;-69
2023/05/26 10:10:31;;;;;;;184.00;66.85;;;;;;;20.58;39.94;102783.75;5058694;28;20041;-70
2023/05/26 10:12:57;;;;;;;180.60;66.72;;;;;;;20.57;39.78;102776.69;5046484;28;20575;-70
2023/05/26 10:15:22;;;;;;;181.10;66.32;;;;;;;20.55;39.90;102789.16;5061316;28;20056;-72
2023/05/26 10:17:48;;;;;;;178.50;66.15;;;;;;;20.51;39.51;102798.09;5054476;28;20025;-71
2023/05/26 10:20:13;;;;;;;194.85;71.00;;;;;;;20.49;40.00;102790.19;5048538;28;20146;-70
2023/05/26 10:22:43;;;;;;;182.18;66.70;;;;;;;20.44;40.25;102795.59;5050159;28;20025;-69
2023/05/26 10:25:15;;;;;;;202.85;69.05;;;;;;;20.36;39.86;102792.25;5043845;28;20025;-69
2023/05/26 10:27:43;;;;;;;174.70;65.00;;;;;;;20.22;39.23;102802.31;5023601;28;20018;-69
2023/05/26 10:30:12;;;;;;;182.25;66.03;;;;;;;20.16;40.45;102799.81;5043136;28;20465;-71
2023/05/26 10:32:47;;;;;;;182.27;66.15;;;;;;;20.25;39.87;102804.91;5040390;28;20032;-71
2023/05/26 10:35:23;;;;;;;184.55;65.80;;;;;;;20.25;40.91;102789.84;5038207;28;20091;-69
2023/05/26 10:38:01;;;;;;;188.13;67.32;;;;;;;20.32;40.40;102795.03;5060609;28;20029;-69
2023/05/26 10:40:36;;;;;;;194.75;70.13;;;;;;;20.36;39.52;102802.84;5030419;28;20028;-72
2023/05/26 10:43:13;;;;;;;207.85;73.85;;;;;;;20.30;39.56;102805.69;5030160;28;20440;-71
2023/05/26 10:45:46;;;;;;;199.80;73.40;;;;;;;20.25;40.42;102783.69;5007013;28;20121;-69
2023/05/26 10:48:12;;;;;;;191.68;69.38;;;;;;;20.18;40.13;102796.22;5012653;28;20018;-69
2023/05/26 10:50:59;;;;;;;198.57;72.88;;;;;;;20.14;40.52;102798.94;5023073;28;20033;-71
2023/05/26 10:53:29;;;;;;;196.68;70.80;;;;;;;20.08;39.49;102797.31;5031917;28;20037;-71
2023/05/26 10:55:56;;;;;;;194.95;70.05;;;;;;;20.02;40.22;102793.03;5030316;28;20029;-71
2023/05/26 10:58:45;;;;;;;188.43;70.05;;;;;;;20.12;39.89;102800.78;5030218;28;20020;-71
2023/05/26 11:01:19;;;;;;;186.18;69.47;;;;;;;19.93;40.22;102799.44;5024891;28;20025;-71